createdAt,value
2023-04-16T00:01:36.324Z,61.49
2023-04-16T00:04:04.269Z,62.38
2023-04-16T00:06:32.059Z,62.82
2023-04-16T00:08:59.434Z,62.84
2023-04-16T00:11:27.535Z,62.74
2023-04-16T00:13:55.502Z,63.52
2023-04-16T00:16:23.446Z,63.79
2023-04-16T00:18:50.924Z,64.16
2023-04-16T00:21:18.769Z,63.96
2023-04-16T00:23:46.537Z,63.84
2023-04-16T00:26:14.547Z,65.46
2023-04-16T00:28:42.342Z,67.24
2023-04-16T00:31:10.227Z,67.70
2023-04-16T00:33:37.652Z,68.59
2023-04-16T00:36:06.745Z,67.99
2023-04-16T00:38:35.044Z,67.04
2023-04-16T00:41:02.777Z,67.76
2023-04-16T00:43:31.732Z,68.01
2023-04-16T00:45:59.245Z,68.68
2023-04-16T00:48:28.140Z,69.54
2023-04-16T00:50:55.965Z,70.52
2023-04-16T00:53:23.466Z,70.78
2023-04-16T00:55:51.414Z,72.44
2023-04-16T00:58:19.355Z,72.68
2023-04-16T01:00:47.197Z,73.22
2023-04-16T01:03:14.766Z,72.84
2023-04-16T01:05:42.900Z,72.43
2023-04-16T01:08:20.663Z,72.31
2023-04-16T01:10:48.610Z,72.26
2023-04-16T01:13:18.863Z,72.33
2023-04-16T01:15:46.771Z,72.51
2023-04-16T01:18:16.252Z,71.69
2023-04-16T01:20:44.170Z,71.74
2023-04-16T01:23:11.881Z,71.33
2023-04-16T01:25:40.178Z,71.97
2023-04-16T01:28:07.956Z,71.85
2023-04-16T01:30:37.659Z,72.05
2023-04-16T01:33:05.513Z,72.27
2023-04-16T01:35:33.009Z,71.30
2023-04-16T01:38:00.955Z,71.05
2023-04-16T01:40:29.280Z,70.25
2023-04-16T01:42:57.263Z,71.06
2023-04-16T01:45:24.919Z,72.05
2023-04-16T01:47:52.984Z,71.10
2023-04-16T01:50:20.768Z,71.48
2023-04-16T01:52:48.650Z,72.27
2023-04-16T01:55:16.214Z,73.58
2023-04-16T01:57:43.832Z,73.47
2023-04-16T02:00:12.817Z,72.69
2023-04-16T02:02:40.693Z,73.73
2023-04-16T02:05:09.482Z,74.67
2023-04-16T02:07:37.557Z,74.55
2023-04-16T02:10:07.272Z,73.49
2023-04-16T02:12:35.261Z,73.85
2023-04-16T02:15:03.620Z,72.51
2023-04-16T02:17:31.418Z,75.13
2023-04-16T02:19:59.346Z,75.35
2023-04-16T02:22:27.240Z,76.25
2023-04-16T02:24:54.294Z,77.37
2023-04-16T02:27:22.024Z,77.37
2023-04-16T02:29:49.857Z,77.83
2023-04-16T02:32:18.365Z,79.18
2023-04-16T02:34:46.692Z,79.15
2023-04-16T02:37:15.658Z,79.12
2023-04-16T02:39:44.005Z,78.49
2023-04-16T02:42:11.950Z,77.71
2023-04-16T02:44:39.988Z,76.92
2023-04-16T02:47:07.834Z,77.44
2023-04-16T02:49:35.936Z,76.62
2023-04-16T02:52:03.454Z,76.42
2023-04-16T02:54:31.454Z,76.67
2023-04-16T02:56:59.722Z,76.99
2023-04-16T02:59:27.540Z,75.87
2023-04-16T03:01:55.557Z,75.22
2023-04-16T03:04:23.139Z,75.42
2023-04-16T03:06:50.729Z,75.92
2023-04-16T03:09:18.244Z,76.62
2023-04-16T03:11:45.974Z,76.74
2023-04-16T03:14:13.937Z,76.31
2023-04-16T03:16:42.271Z,76.25
2023-04-16T03:19:10.321Z,76.00
2023-04-16T03:21:38.232Z,75.21
2023-04-16T03:24:06.224Z,74.51
2023-04-16T03:26:34.223Z,72.25
2023-04-16T03:29:05.467Z,72.06
2023-04-16T03:31:33.004Z,73.28
2023-04-16T03:34:00.986Z,73.88
2023-04-16T03:36:28.511Z,74.03
2023-04-16T03:38:56.087Z,74.18
2023-04-16T03:41:24.082Z,75.10
2023-04-16T03:43:52.004Z,72.62
2023-04-16T03:46:20.407Z,74.11
2023-04-16T03:48:48.519Z,75.46
2023-04-16T03:51:16.218Z,74.94
2023-04-16T03:53:43.237Z,75.48
2023-04-16T03:56:11.103Z,75.75
2023-04-16T03:58:41.851Z,76.09
2023-04-16T04:01:10.234Z,75.92
2023-04-16T04:03:38.366Z,76.10
2023-04-16T04:06:10.266Z,76.02
2023-04-16T04:08:38.043Z,76.63
2023-04-16T04:11:06.115Z,77.76
2023-04-16T04:13:33.910Z,78.02
2023-04-16T04:16:02.436Z,78.35
2023-04-16T04:18:30.508Z,78.89
2023-04-16T04:20:57.973Z,79.43
2023-04-16T04:23:25.640Z,79.39
2023-04-16T04:25:53.921Z,78.65
2023-04-16T04:28:21.774Z,78.79
2023-04-16T04:30:49.950Z,78.54
2023-04-16T04:33:17.699Z,78.38
2023-04-16T04:35:45.646Z,77.88
2023-04-16T04:38:15.627Z,79.53
2023-04-16T04:40:44.478Z,80.46
2023-04-16T04:43:15.983Z,81.16
2023-04-16T04:45:44.302Z,80.82
2023-04-16T04:48:12.322Z,81.74
2023-04-16T04:50:40.957Z,83.28
2023-04-16T04:53:11.553Z,84.23
2023-04-16T04:55:40.157Z,84.59
2023-04-16T04:58:08.137Z,84.28
2023-04-16T05:00:39.082Z,83.39
2023-04-16T05:03:07.485Z,84.11
2023-04-16T05:05:35.273Z,83.53
2023-04-16T05:08:03.101Z,82.76
2023-04-16T05:10:30.771Z,82.29
2023-04-16T05:12:58.569Z,82.41
2023-04-16T05:15:26.217Z,81.25
2023-04-16T05:17:53.760Z,81.03
2023-04-16T05:20:23.034Z,80.42
2023-04-16T05:22:51.886Z,80.34
2023-04-16T05:25:19.531Z,80.48
2023-04-16T05:27:47.327Z,80.23
2023-04-16T05:30:15.235Z,79.85
2023-04-16T05:32:42.886Z,78.64
2023-04-16T05:35:11.351Z,78.00
2023-04-16T05:37:42.016Z,77.99
2023-04-16T05:40:13.649Z,76.59
2023-04-16T05:42:41.623Z,75.75
2023-04-16T05:45:14.427Z,74.45
2023-04-16T05:47:42.615Z,72.75
2023-04-16T05:50:12.189Z,72.04
2023-04-16T05:52:40.150Z,70.88
2023-04-16T05:55:08.840Z,70.08
2023-04-16T05:57:37.058Z,70.29
2023-04-16T06:00:06.791Z,70.30
2023-04-16T06:02:37.270Z,70.18
2023-04-16T06:05:06.465Z,70.17
2023-04-16T06:07:34.441Z,70.23
2023-04-16T06:10:02.441Z,70.09
2023-04-16T06:12:29.933Z,69.37
2023-04-16T06:14:57.560Z,69.22
2023-04-16T06:17:25.371Z,68.15
2023-04-16T06:19:53.392Z,68.38
2023-04-16T06:22:21.191Z,69.41
2023-04-16T06:24:48.770Z,69.08
2023-04-16T06:27:16.743Z,68.70
2023-04-16T06:29:44.508Z,68.56
2023-04-16T06:32:11.948Z,66.94
2023-04-16T06:34:39.598Z,67.03
2023-04-16T06:37:10.355Z,67.18
2023-04-16T06:39:41.994Z,68.18
2023-04-16T06:42:09.624Z,66.88
2023-04-16T06:44:37.560Z,66.73
2023-04-16T06:47:05.527Z,67.15
2023-04-16T06:49:33.128Z,68.84
2023-04-16T06:52:01.986Z,69.88
2023-04-16T06:54:30.235Z,70.59
2023-04-16T06:56:58.129Z,71.89
2023-04-16T06:59:25.917Z,72.19
2023-04-16T07:01:53.993Z,71.24
2023-04-16T07:04:21.907Z,71.31
2023-04-16T07:06:51.802Z,69.84
2023-04-16T07:09:19.252Z,69.08
2023-04-16T07:11:47.058Z,67.26
2023-04-16T07:14:15.095Z,65.89
2023-04-16T07:16:42.616Z,66.22
2023-04-16T07:19:10.350Z,66.43
2023-04-16T07:21:37.643Z,66.57
2023-04-16T07:24:05.656Z,67.19
2023-04-16T07:26:33.609Z,67.61
2023-04-16T07:29:01.469Z,67.29
2023-04-16T07:31:29.398Z,66.68
2023-04-16T07:34:04.505Z,66.17
2023-04-16T07:36:32.273Z,65.46
2023-04-16T07:39:00.174Z,65.12
2023-04-16T07:41:27.934Z,63.57
2023-04-16T07:43:55.555Z,62.47
2023-04-16T07:46:24.902Z,62.24
2023-04-16T07:48:53.916Z,61.58
2023-04-16T07:51:21.880Z,61.93
2023-04-16T07:53:49.841Z,62.25
2023-04-16T07:56:17.355Z,61.68
2023-04-16T07:58:45.246Z,61.30
2023-04-16T08:01:13.445Z,60.09
2023-04-16T08:03:41.253Z,59.36
2023-04-16T08:06:09.596Z,60.26
2023-04-16T08:08:37.163Z,60.41
2023-04-16T08:11:05.077Z,59.22
2023-04-16T08:13:33.725Z,50.78
2023-04-16T08:16:01.952Z,55.12
2023-04-16T08:18:29.983Z,56.24
2023-04-16T08:20:58.165Z,54.41
2023-04-16T08:23:25.564Z,55.62
2023-04-16T08:25:53.155Z,52.01
2023-04-16T08:28:21.282Z,51.87
2023-04-16T08:30:48.822Z,53.37
2023-04-16T08:33:16.753Z,52.45
2023-04-16T08:35:44.246Z,53.49
2023-04-16T08:38:13.312Z,54.00
2023-04-16T08:40:41.864Z,52.04
2023-04-16T08:43:12.407Z,53.62
2023-04-16T08:45:39.487Z,52.91
2023-04-16T08:48:07.601Z,52.27
2023-04-16T08:50:35.693Z,52.51
2023-04-16T08:53:07.008Z,52.07
2023-04-16T08:55:38.562Z,51.61
2023-04-16T08:58:36.731Z,50.13
2023-04-16T09:01:05.534Z,48.58
2023-04-16T09:03:36.155Z,48.49
2023-04-16T09:06:04.187Z,44.84
2023-04-16T09:08:32.286Z,45.27
2023-04-16T09:11:00.473Z,45.23
2023-04-16T09:13:28.067Z,44.28
2023-04-16T09:15:57.273Z,44.21
2023-04-16T09:18:24.812Z,43.97
2023-04-16T09:20:52.234Z,43.31
2023-04-16T09:23:19.709Z,43.40
2023-04-16T09:25:47.854Z,43.90
2023-04-16T09:28:57.870Z,43.41
2023-04-16T09:31:25.466Z,43.57
2023-04-16T09:34:09.652Z,44.62
2023-04-16T09:36:37.532Z,43.24
2023-04-16T09:39:05.347Z,40.49
2023-04-16T09:41:35.956Z,42.47
2023-04-16T09:44:06.997Z,41.94
2023-04-16T09:46:41.885Z,41.66
2023-04-16T09:49:16.693Z,40.67
2023-04-16T09:51:45.709Z,41.32
2023-04-16T09:54:13.673Z,40.99
2023-04-16T09:56:45.908Z,41.14
2023-04-16T09:59:21.108Z,39.56
2023-04-16T10:01:49.851Z,41.39
2023-04-16T10:04:17.057Z,38.92
2023-04-16T10:06:46.952Z,39.60
2023-04-16T10:09:14.890Z,40.25
2023-04-16T10:11:42.526Z,39.38
2023-04-16T10:14:10.484Z,38.64
2023-04-16T10:16:41.202Z,39.38
2023-04-16T10:19:09.468Z,40.32
2023-04-16T10:21:37.314Z,37.54
2023-04-16T10:24:05.923Z,37.87
2023-04-16T10:26:33.832Z,38.59
2023-04-16T10:29:01.227Z,39.21
2023-04-16T10:31:29.627Z,38.51
2023-04-16T10:33:56.875Z,39.43
2023-04-16T10:36:25.115Z,38.39
2023-04-16T10:38:59.042Z,39.44
2023-04-16T10:41:27.081Z,39.68
2023-04-16T10:43:54.717Z,37.17
2023-04-16T10:46:50.945Z,37.99
2023-04-16T10:49:19.341Z,36.51
2023-04-16T10:52:18.982Z,35.59
2023-04-16T10:54:47.914Z,36.59
2023-04-16T10:57:18.933Z,35.85
2023-04-16T10:59:46.675Z,36.33
2023-04-16T11:02:17.015Z,35.94
2023-04-16T11:04:49.326Z,35.32
2023-04-16T11:07:20.517Z,35.06
2023-04-16T11:10:02.097Z,32.58
2023-04-16T11:12:47.166Z,33.74
2023-04-16T11:15:15.851Z,32.96
2023-04-16T11:17:46.895Z,34.61
2023-04-16T11:20:27.401Z,34.63
2023-04-16T11:22:59.088Z,35.09
2023-04-16T11:25:30.306Z,35.06
2023-04-16T11:27:59.182Z,34.98
2023-04-16T11:30:31.237Z,35.77
2023-04-16T11:32:58.709Z,34.30
2023-04-16T11:35:25.441Z,34.61
2023-04-16T11:37:56.361Z,34.27
2023-04-16T11:40:24.084Z,33.46
2023-04-16T11:42:52.378Z,35.31
2023-04-16T11:45:23.516Z,33.60
2023-04-16T11:47:52.270Z,31.92
2023-04-16T11:50:22.120Z,31.84
2023-04-16T11:52:49.686Z,32.07
2023-04-16T11:55:17.798Z,30.15
2023-04-16T11:57:46.043Z,28.67
2023-04-16T12:00:15.248Z,28.94
2023-04-16T12:02:53.047Z,30.37
2023-04-16T12:05:39.201Z,29.59
2023-04-16T12:08:10.566Z,28.98
2023-04-16T12:10:39.309Z,28.67
2023-04-16T12:13:16.506Z,25.46
2023-04-16T12:16:19.673Z,25.53
2023-04-16T12:19:07.035Z,25.08
2023-04-16T12:22:06.679Z,25.79
2023-04-16T12:24:34.027Z,24.85
2023-04-16T12:27:03.504Z,24.40
2023-04-16T12:29:32.063Z,23.84
2023-04-16T12:32:00.203Z,24.06
2023-04-16T12:34:48.124Z,23.86
2023-04-16T12:37:15.479Z,23.53
2023-04-16T12:39:43.992Z,23.83
2023-04-16T12:42:13.281Z,23.17
2023-04-16T12:44:40.861Z,23.48
2023-04-16T12:47:09.123Z,23.67
2023-04-16T12:49:37.486Z,24.17
2023-04-16T12:52:08.760Z,23.13
2023-04-16T12:54:36.320Z,23.01
2023-04-16T12:57:28.795Z,21.31
2023-04-16T12:59:59.636Z,21.88
2023-04-16T13:02:46.881Z,21.82
2023-04-16T13:05:19.306Z,23.33
2023-04-16T13:07:49.204Z,25.53
2023-04-16T13:10:16.753Z,26.69
2023-04-16T13:12:47.362Z,28.36
2023-04-16T13:15:15.329Z,29.21
2023-04-16T13:17:45.470Z,29.28
2023-04-16T13:20:24.612Z,29.56
2023-04-16T13:22:52.488Z,29.84
2023-04-16T13:25:20.395Z,29.18
2023-04-16T13:27:48.365Z,28.65
2023-04-16T13:30:17.651Z,28.21
2023-04-16T13:32:45.513Z,28.28
2023-04-16T13:35:15.190Z,28.16
2023-04-16T13:37:42.737Z,26.43
2023-04-16T13:40:11.217Z,26.52
2023-04-16T13:42:38.754Z,26.29
2023-04-16T13:45:09.452Z,26.63
2023-04-16T13:47:36.799Z,27.69
2023-04-16T13:50:05.716Z,27.35
2023-04-16T13:52:33.628Z,27.56
2023-04-16T13:55:01.707Z,27.52
2023-04-16T13:57:29.173Z,27.16
2023-04-16T13:59:56.687Z,28.69
2023-04-16T14:02:26.094Z,29.02
2023-04-16T14:04:54.003Z,29.53
2023-04-16T14:07:26.041Z,29.71
2023-04-16T14:09:54.531Z,29.86
2023-04-16T14:12:22.246Z,29.92
2023-04-16T14:14:50.389Z,29.83
2023-04-16T14:17:18.086Z,30.39
2023-04-16T14:19:46.036Z,29.91
2023-04-16T14:22:17.721Z,29.47
2023-04-16T14:24:45.867Z,29.38
2023-04-16T14:27:13.688Z,29.19
2023-04-16T14:29:41.575Z,29.30
2023-04-16T14:32:09.142Z,30.21
2023-04-16T14:34:37.055Z,30.84
2023-04-16T14:37:04.306Z,29.86
2023-04-16T14:39:32.231Z,29.73
2023-04-16T14:42:00.241Z,29.55
2023-04-16T14:44:28.315Z,28.50
2023-04-16T14:47:03.106Z,27.54
2023-04-16T14:49:31.361Z,27.67
2023-04-16T14:51:58.966Z,27.45
2023-04-16T14:54:26.550Z,27.60
2023-04-16T14:56:54.650Z,28.62
2023-04-16T14:59:22.507Z,28.59
2023-04-16T15:01:50.248Z,28.83
2023-04-16T15:04:18.381Z,29.86
2023-04-16T15:06:46.587Z,29.59
2023-04-16T15:09:14.763Z,30.11
2023-04-16T15:11:42.741Z,30.40
2023-04-16T15:14:10.637Z,30.61
2023-04-16T15:16:38.067Z,30.55
2023-04-16T15:19:05.721Z,31.40
2023-04-16T15:21:33.198Z,31.47
2023-04-16T15:24:01.270Z,31.35
2023-04-16T15:26:29.817Z,31.92
2023-04-16T15:28:57.161Z,31.98
2023-04-16T15:31:25.535Z,31.60
2023-04-16T15:33:53.657Z,31.64
2023-04-16T15:36:21.267Z,31.75
2023-04-16T15:38:48.934Z,31.74
2023-04-16T15:41:16.437Z,31.57
2023-04-16T15:43:44.043Z,31.22
2023-04-16T15:46:11.849Z,30.92
2023-04-16T15:48:39.844Z,31.29
2023-04-16T15:51:07.732Z,31.20
2023-04-16T15:53:35.704Z,31.49
2023-04-16T15:56:03.198Z,31.80
2023-04-16T15:58:30.880Z,31.97
2023-04-16T16:00:58.989Z,31.61
2023-04-16T16:03:27.462Z,31.51
2023-04-16T16:05:55.545Z,31.81
2023-04-16T16:08:23.971Z,31.43
2023-04-16T16:10:52.257Z,31.42
2023-04-16T16:13:20.250Z,31.38
2023-04-16T16:15:48.199Z,32.44
2023-04-16T16:18:16.170Z,32.96
2023-04-16T16:20:44.393Z,33.74
2023-04-16T16:23:12.599Z,33.96
2023-04-16T16:25:42.117Z,33.25
2023-04-16T16:28:15.586Z,33.35
2023-04-16T16:30:43.168Z,33.48
2023-04-16T16:33:11.602Z,33.32
2023-04-16T16:35:39.492Z,33.11
2023-04-16T16:38:07.454Z,33.45
2023-04-16T16:40:35.456Z,33.59
2023-04-16T16:43:03.454Z,34.26
2023-04-16T16:45:31.440Z,34.47
2023-04-16T16:47:59.033Z,35.06
2023-04-16T16:50:26.900Z,35.87
2023-04-16T16:52:54.825Z,35.78
2023-04-16T16:55:23.425Z,36.27
2023-04-16T16:57:51.228Z,35.52
2023-04-16T17:00:20.819Z,35.75
2023-04-16T17:02:51.145Z,35.57
2023-04-16T17:05:19.191Z,36.52
2023-04-16T17:07:46.741Z,37.04
2023-04-16T17:10:21.045Z,37.68
2023-04-16T17:12:49.421Z,37.50
2023-04-16T17:15:18.508Z,37.32
2023-04-16T17:17:47.231Z,37.64
2023-04-16T17:20:14.870Z,37.83
2023-04-16T17:22:43.214Z,38.60
2023-04-16T17:25:12.116Z,39.39
2023-04-16T17:27:39.984Z,38.85
2023-04-16T17:30:11.763Z,38.60
2023-04-16T17:32:39.306Z,38.91
2023-04-16T17:35:09.435Z,38.79
2023-04-16T17:37:37.458Z,39.35
2023-04-16T17:40:07.980Z,39.18
2023-04-16T17:42:36.742Z,38.94
2023-04-16T17:45:05.403Z,39.23
2023-04-16T17:47:34.390Z,38.82
2023-04-16T17:50:02.196Z,39.46
2023-04-16T17:52:29.845Z,38.93
2023-04-16T17:55:01.301Z,39.23
2023-04-16T17:57:28.962Z,39.54
2023-04-16T17:59:57.043Z,39.79
2023-04-16T18:02:24.705Z,40.28
2023-04-16T18:04:52.684Z,40.15
2023-04-16T18:07:20.717Z,40.65
2023-04-16T18:09:48.321Z,40.56
2023-04-16T18:12:16.430Z,40.99
2023-04-16T18:14:45.064Z,41.10
2023-04-16T18:17:13.072Z,41.32
2023-04-16T18:19:43.670Z,41.48
2023-04-16T18:22:13.304Z,41.47
2023-04-16T18:24:41.285Z,41.69
2023-04-16T18:27:09.149Z,41.67
2023-04-16T18:29:38.793Z,41.98
2023-04-16T18:32:11.720Z,42.10
2023-04-16T18:34:40.051Z,42.52
2023-04-16T18:37:07.872Z,42.59
2023-04-16T18:39:36.547Z,43.17
2023-04-16T18:42:04.328Z,43.30
2023-04-16T18:44:32.364Z,43.25
2023-04-16T18:47:00.338Z,44.03
2023-04-16T18:49:28.006Z,44.64
2023-04-16T18:51:55.930Z,45.13
2023-04-16T18:54:23.784Z,45.91
2023-04-16T18:56:51.552Z,46.32
2023-04-16T18:59:19.543Z,46.85
2023-04-16T19:01:47.419Z,46.97
2023-04-16T19:04:15.125Z,47.20
2023-04-16T19:06:42.794Z,47.90
2023-04-16T19:09:11.740Z,47.81
2023-04-16T19:11:39.762Z,48.38
2023-04-16T19:14:08.199Z,48.67
2023-04-16T19:16:36.006Z,48.22
2023-04-16T19:19:03.863Z,48.85
2023-04-16T19:21:31.337Z,48.85
2023-04-16T19:23:58.786Z,49.34
2023-04-16T19:26:27.091Z,49.66
2023-04-16T19:28:54.513Z,49.37
2023-04-16T19:31:22.469Z,49.99
2023-04-16T19:33:50.445Z,50.09
2023-04-16T19:36:17.935Z,50.28
2023-04-16T19:38:45.922Z,50.53
2023-04-16T19:41:13.893Z,51.00
2023-04-16T19:43:41.760Z,51.17
2023-04-16T19:46:16.786Z,51.72
2023-04-16T19:48:44.735Z,51.81
2023-04-16T19:51:12.158Z,51.72
2023-04-16T19:53:39.915Z,52.36
2023-04-16T19:56:07.873Z,52.60
2023-04-16T19:58:35.450Z,53.10
2023-04-16T20:01:02.691Z,53.76
2023-04-16T20:03:30.616Z,53.22
2023-04-16T20:05:58.514Z,53.29
2023-04-16T20:08:26.405Z,53.66
2023-04-16T20:10:54.565Z,53.69
2023-04-16T20:13:23.044Z,53.87
2023-04-16T20:15:54.075Z,53.89
2023-04-16T20:18:21.557Z,53.80
2023-04-16T20:20:49.091Z,54.30
2023-04-16T20:23:16.547Z,54.76
2023-04-16T20:25:44.751Z,55.77
2023-04-16T20:28:12.731Z,55.13
2023-04-16T20:30:40.311Z,55.18
2023-04-16T20:33:08.912Z,55.49
2023-04-16T20:35:36.534Z,55.58
2023-04-16T20:38:04.479Z,56.49
2023-04-16T20:40:32.426Z,57.11
2023-04-16T20:43:00.438Z,56.87
2023-04-16T20:45:32.776Z,57.45
2023-04-16T20:48:09.115Z,58.21
2023-04-16T20:50:40.668Z,58.84
2023-04-16T20:53:08.580Z,59.17
2023-04-16T20:55:36.892Z,59.40
2023-04-16T20:58:04.424Z,59.58
2023-04-16T21:00:33.041Z,60.30
2023-04-16T21:03:01.035Z,61.00
2023-04-16T21:05:30.029Z,61.45
2023-04-16T21:07:57.948Z,63.37
2023-04-16T21:10:25.464Z,64.17
2023-04-16T21:12:53.341Z,64.69
2023-04-16T21:15:21.455Z,65.00
2023-04-16T21:17:49.365Z,65.02
2023-04-16T21:20:18.174Z,65.13
2023-04-16T21:22:46.116Z,64.69
2023-04-16T21:25:14.336Z,64.14
2023-04-16T21:27:42.258Z,65.13
2023-04-16T21:30:13.305Z,65.40
2023-04-16T21:32:40.966Z,65.53
2023-04-16T21:35:10.744Z,65.52
2023-04-16T21:37:38.798Z,65.30
2023-04-16T21:40:07.685Z,65.31
2023-04-16T21:42:42.390Z,65.79
2023-04-16T21:45:11.525Z,65.33
2023-04-16T21:47:39.548Z,65.54
2023-04-16T21:50:10.034Z,66.32
2023-04-16T21:52:40.742Z,65.56
2023-04-16T21:55:11.066Z,65.85
2023-04-16T21:57:38.973Z,65.33
2023-04-16T22:00:13.834Z,65.74
2023-04-16T22:03:01.730Z,65.99
2023-04-16T22:05:31.771Z,66.36
2023-04-16T22:08:02.496Z,66.31
2023-04-16T22:10:33.873Z,65.79
2023-04-16T22:13:06.193Z,65.03
2023-04-16T22:15:34.238Z,65.32
2023-04-16T22:18:01.995Z,66.25
2023-04-16T22:20:30.756Z,66.71
2023-04-16T22:22:58.778Z,66.60
2023-04-16T22:25:26.877Z,66.77
2023-04-16T22:27:54.752Z,66.39
2023-04-16T22:30:22.269Z,66.65
2023-04-16T22:32:50.251Z,66.83
2023-04-16T22:35:18.016Z,66.89
2023-04-16T22:37:45.582Z,66.34
2023-04-16T22:40:14.381Z,66.25
2023-04-16T22:42:41.984Z,66.43
2023-04-16T22:45:11.898Z,65.29
2023-04-16T22:47:39.454Z,65.32
2023-04-16T22:50:10.759Z,66.61
2023-04-16T22:52:38.761Z,67.61
2023-04-16T22:55:08.259Z,68.01
2023-04-16T22:57:35.816Z,68.07
2023-04-16T23:00:06.501Z,68.10
2023-04-16T23:02:34.465Z,68.04
2023-04-16T23:05:02.151Z,67.46
2023-04-16T23:07:30.180Z,67.41
2023-04-16T23:09:57.813Z,67.48
2023-04-16T23:12:25.597Z,66.94
2023-04-16T23:14:53.219Z,66.54
2023-04-16T23:17:21.156Z,66.42
2023-04-16T23:19:49.164Z,65.97
2023-04-16T23:22:17.407Z,65.55
2023-04-16T23:24:45.034Z,66.46
2023-04-16T23:27:12.947Z,68.46
2023-04-16T23:29:40.474Z,67.93
2023-04-16T23:32:08.571Z,68.15
2023-04-16T23:34:36.344Z,68.10
2023-04-16T23:37:04.304Z,69.09
2023-04-16T23:39:31.784Z,70.25
2023-04-16T23:41:59.718Z,69.58
2023-04-16T23:44:27.779Z,69.33
2023-04-16T23:46:55.391Z,68.89
2023-04-16T23:49:23.037Z,68.60
2023-04-16T23:51:50.550Z,69.07
2023-04-16T23:54:18.570Z,69.21
2023-04-16T23:56:46.258Z,69.64
2023-04-16T23:59:14.074Z,70.26
